sensor_id;sensor_type;location;lat;lon;timestamp;P1;durP1;ratioP1;P2;durP2;ratioP2
4244;SDS011;2136;48.502;9.194;2023-12-22T00:01:01;0.80;;;0.80;;
4244;SDS011;2136;48.502;9.194;2023-12-22T00:03:28;6.63;;;0.60;;
4244;SDS011;2136;48.502;9.194;2023-12-22T00:05:54;1.90;;;0.97;;
4244;SDS011;2136;48.502;9.194;2023-12-22T00:08:23;1.13;;;0.83;;
4244;SDS011;2136;48.502;9.194;2023-12-22T00:10:49;1.90;;;1.00;;
4244;SDS011;2136;48.502;9.194;2023-12-22T00:13:16;1.37;;;1.20;;
4244;SDS011;2136;48.502;9.194;2023-12-22T00:15:43;3.37;;;1.00;;
4244;SDS011;2136;48.502;9.194;2023-12-22T00:18:10;1.73;;;1.00;;
4244;SDS011;2136;48.502;9.194;2023-12-22T00:20:37;8.53;;;0.90;;
4244;SDS011;2136;48.502;9.194;2023-12-22T00:23:04;4.87;;;1.17;;
4244;SDS011;2136;48.502;9.194;2023-12-22T00:25:32;1.73;;;0.83;;
4244;SDS011;2136;48.502;9.194;2023-12-22T00:27:58;2.73;;;1.23;;
4244;SDS011;2136;48.502;9.194;2023-12-22T00:30:25;2.57;;;1.00;;
4244;SDS011;2136;48.502;9.194;2023-12-22T00:32:52;3.33;;;1.20;;
4244;SDS011;2136;48.502;9.194;2023-12-22T00:35:19;1.43;;;1.27;;
4244;SDS011;2136;48.502;9.194;2023-12-22T00:37:46;6.03;;;1.00;;
4244;SDS011;2136;48.502;9.194;2023-12-22T00:40:12;1.63;;;1.07;;
4244;SDS011;2136;48.502;9.194;2023-12-22T00:42:41;5.93;;;1.90;;
4244;SDS011;2136;48.502;9.194;2023-12-22T00:45:08;3.00;;;1.33;;
4244;SDS011;2136;48.502;9.194;2023-12-22T00:47:35;5.63;;;1.60;;
4244;SDS011;2136;48.502;9.194;2023-12-22T00:50:02;1.90;;;1.23;;
4244;SDS011;2136;48.502;9.194;2023-12-22T00:52:30;4.93;;;1.67;;
4244;SDS011;2136;48.502;9.194;2023-12-22T00:54:57;3.57;;;1.00;;
4244;SDS011;2136;48.502;9.194;2023-12-22T00:57:24;2.80;;;1.20;;
4244;SDS011;2136;48.502;9.194;2023-12-22T00:59:52;5.37;;;1.77;;
4244;SDS011;2136;48.502;9.194;2023-12-22T01:02:19;3.80;;;1.10;;
4244;SDS011;2136;48.502;9.194;2023-12-22T01:04:49;1.43;;;1.27;;
4244;SDS011;2136;48.502;9.194;2023-12-22T01:07:16;3.40;;;1.07;;
4244;SDS011;2136;48.502;9.194;2023-12-22T01:09:43;6.63;;;1.60;;
4244;SDS011;2136;48.502;9.194;2023-12-22T01:12:10;8.27;;;1.80;;
4244;SDS011;2136;48.502;9.194;2023-12-22T01:14:37;4.67;;;1.63;;
4244;SDS011;2136;48.502;9.194;2023-12-22T01:17:05;5.33;;;2.03;;
4244;SDS011;2136;48.502;9.194;2023-12-22T01:19:32;7.30;;;1.30;;
4244;SDS011;2136;48.502;9.194;2023-12-22T01:21:59;5.67;;;1.17;;
4244;SDS011;2136;48.502;9.194;2023-12-22T01:24:26;4.70;;;1.00;;
4244;SDS011;2136;48.502;9.194;2023-12-22T01:26:53;2.53;;;1.40;;
4244;SDS011;2136;48.502;9.194;2023-12-22T01:29:19;2.93;;;0.90;;
4244;SDS011;2136;48.502;9.194;2023-12-22T01:31:46;4.70;;;1.20;;
4244;SDS011;2136;48.502;9.194;2023-12-22T01:34:14;0.97;;;0.77;;
4244;SDS011;2136;48.502;9.194;2023-12-22T01:36:41;2.30;;;0.90;;
4244;SDS011;2136;48.502;9.194;2023-12-22T01:39:08;0.80;;;0.80;;
4244;SDS011;2136;48.502;9.194;2023-12-22T01:41:35;0.63;;;0.63;;
4244;SDS011;2136;48.502;9.194;2023-12-22T01:44:02;2.90;;;0.70;;
4244;SDS011;2136;48.502;9.194;2023-12-22T01:46:29;0.60;;;0.60;;
4244;SDS011;2136;48.502;9.194;2023-12-22T01:48:56;0.73;;;0.73;;
4244;SDS011;2136;48.502;9.194;2023-12-22T01:51:27;0.70;;;0.70;;
4244;SDS011;2136;48.502;9.194;2023-12-22T01:53:55;1.60;;;0.80;;
4244;SDS011;2136;48.502;9.194;2023-12-22T01:56:22;0.60;;;0.60;;
4244;SDS011;2136;48.502;9.194;2023-12-22T01:58:50;1.53;;;0.70;;
4244;SDS011;2136;48.502;9.194;2023-12-22T02:01:19;0.80;;;0.63;;
4244;SDS011;2136;48.502;9.194;2023-12-22T02:03:46;5.30;;;0.67;;
4244;SDS011;2136;48.502;9.194;2023-12-22T02:06:17;0.70;;;0.70;;
4244;SDS011;2136;48.502;9.194;2023-12-22T02:08:45;2.10;;;0.80;;
4244;SDS011;2136;48.502;9.194;2023-12-22T02:11:13;1.70;;;0.60;;
4244;SDS011;2136;48.502;9.194;2023-12-22T02:13:40;1.97;;;0.80;;
4244;SDS011;2136;48.502;9.194;2023-12-22T02:16:09;1.70;;;0.70;;
4244;SDS011;2136;48.502;9.194;2023-12-22T02:18:44;0.70;;;0.70;;
4244;SDS011;2136;48.502;9.194;2023-12-22T02:21:14;8.03;;;0.63;;
4244;SDS011;2136;48.502;9.194;2023-12-22T02:23:42;0.70;;;0.70;;
4244;SDS011;2136;48.502;9.194;2023-12-22T02:26:10;0.90;;;0.90;;
4244;SDS011;2136;48.502;9.194;2023-12-22T02:28:51;4.73;;;0.80;;
4244;SDS011;2136;48.502;9.194;2023-12-22T02:31:20;2.43;;;0.80;;
4244;SDS011;2136;48.502;9.194;2023-12-22T02:33:54;1.70;;;0.70;;
4244;SDS011;2136;48.502;9.194;2023-12-22T02:36:23;3.20;;;1.37;;
4244;SDS011;2136;48.502;9.194;2023-12-22T02:38:53;1.17;;;0.80;;
4244;SDS011;2136;48.502;9.194;2023-12-22T02:41:21;2.70;;;0.80;;
4244;SDS011;2136;48.502;9.194;2023-12-22T02:43:48;1.37;;;1.27;;
4244;SDS011;2136;48.502;9.194;2023-12-22T02:46:15;2.77;;;1.00;;
4244;SDS011;2136;48.502;9.194;2023-12-22T02:48:42;2.43;;;1.33;;
4244;SDS011;2136;48.502;9.194;2023-12-22T02:51:09;4.43;;;1.10;;
4244;SDS011;2136;48.502;9.194;2023-12-22T02:53:35;7.63;;;1.30;;
4244;SDS011;2136;48.502;9.194;2023-12-22T02:56:04;2.83;;;1.07;;
4244;SDS011;2136;48.502;9.194;2023-12-22T02:58:31;4.07;;;1.27;;
4244;SDS011;2136;48.502;9.194;2023-12-22T03:00:58;1.57;;;1.00;;
4244;SDS011;2136;48.502;9.194;2023-12-22T03:03:25;2.70;;;1.63;;
4244;SDS011;2136;48.502;9.194;2023-12-22T03:05:51;0.83;;;0.80;;
4244;SDS011;2136;48.502;9.194;2023-12-22T03:08:18;4.77;;;1.13;;
4244;SDS011;2136;48.502;9.194;2023-12-22T03:10:45;9.73;;;1.17;;
4244;SDS011;2136;48.502;9.194;2023-12-22T03:13:13;5.77;;;1.20;;
4244;SDS011;2136;48.502;9.194;2023-12-22T03:15:40;3.77;;;1.00;;
4244;SDS011;2136;48.502;9.194;2023-12-22T03:18:07;1.10;;;0.90;;
4244;SDS011;2136;48.502;9.194;2023-12-22T03:20:33;6.90;;;0.90;;
4244;SDS011;2136;48.502;9.194;2023-12-22T03:23:00;3.50;;;1.13;;
4244;SDS011;2136;48.502;9.194;2023-12-22T03:25:27;1.27;;;0.90;;
4244;SDS011;2136;48.502;9.194;2023-12-22T03:27:54;0.63;;;0.63;;
4244;SDS011;2136;48.502;9.194;2023-12-22T03:30:22;4.23;;;0.97;;
4244;SDS011;2136;48.502;9.194;2023-12-22T03:32:49;1.53;;;1.00;;
4244;SDS011;2136;48.502;9.194;2023-12-22T03:35:16;1.97;;;1.00;;
4244;SDS011;2136;48.502;9.194;2023-12-22T03:37:43;1.80;;;1.00;;
4244;SDS011;2136;48.502;9.194;2023-12-22T03:40:10;2.40;;;1.23;;
4244;SDS011;2136;48.502;9.194;2023-12-22T03:42:37;1.67;;;0.80;;
4244;SDS011;2136;48.502;9.194;2023-12-22T03:45:04;2.97;;;1.07;;
4244;SDS011;2136;48.502;9.194;2023-12-22T03:47:33;5.27;;;0.83;;
4244;SDS011;2136;48.502;9.194;2023-12-22T03:50:00;2.17;;;0.80;;
4244;SDS011;2136;48.502;9.194;2023-12-22T03:52:26;1.27;;;0.67;;
4244;SDS011;2136;48.502;9.194;2023-12-22T03:54:53;2.00;;;0.70;;
4244;SDS011;2136;48.502;9.194;2023-12-22T03:57:20;1.43;;;0.90;;
4244;SDS011;2136;48.502;9.194;2023-12-22T03:59:47;2.63;;;0.70;;
4244;SDS011;2136;48.502;9.194;2023-12-22T04:02:14;0.80;;;0.73;;
4244;SDS011;2136;48.502;9.194;2023-12-22T04:04:42;1.97;;;1.00;;
4244;SDS011;2136;48.502;9.194;2023-12-22T04:07:09;1.13;;;1.03;;
4244;SDS011;2136;48.502;9.194;2023-12-22T04:09:36;2.90;;;0.87;;
4244;SDS011;2136;48.502;9.194;2023-12-22T04:12:04;1.93;;;1.10;;
4244;SDS011;2136;48.502;9.194;2023-12-22T04:14:31;2.50;;;0.90;;
4244;SDS011;2136;48.502;9.194;2023-12-22T04:16:58;4.13;;;1.03;;
4244;SDS011;2136;48.502;9.194;2023-12-22T04:19:25;1.67;;;1.03;;
4244;SDS011;2136;48.502;9.194;2023-12-22T04:21:53;2.00;;;0.80;;
4244;SDS011;2136;48.502;9.194;2023-12-22T04:24:20;3.87;;;1.00;;
4244;SDS011;2136;48.502;9.194;2023-12-22T04:26:46;7.10;;;1.07;;
4244;SDS011;2136;48.502;9.194;2023-12-22T04:29:13;1.80;;;1.10;;
4244;SDS011;2136;48.502;9.194;2023-12-22T04:31:41;4.37;;;0.90;;
4244;SDS011;2136;48.502;9.194;2023-12-22T04:34:07;2.00;;;1.07;;
4244;SDS011;2136;48.502;9.194;2023-12-22T04:36:34;2.50;;;1.30;;
4244;SDS011;2136;48.502;9.194;2023-12-22T04:39:03;1.70;;;1.30;;
4244;SDS011;2136;48.502;9.194;2023-12-22T04:41:30;1.60;;;0.93;;
4244;SDS011;2136;48.502;9.194;2023-12-22T04:43:56;7.70;;;1.80;;
4244;SDS011;2136;48.502;9.194;2023-12-22T04:46:28;4.40;;;1.37;;
4244;SDS011;2136;48.502;9.194;2023-12-22T04:48:54;2.23;;;1.50;;
4244;SDS011;2136;48.502;9.194;2023-12-22T04:51:21;6.80;;;1.33;;
4244;SDS011;2136;48.502;9.194;2023-12-22T04:53:49;1.90;;;1.20;;
4244;SDS011;2136;48.502;9.194;2023-12-22T04:56:18;2.23;;;1.30;;
4244;SDS011;2136;48.502;9.194;2023-12-22T04:58:44;9.53;;;2.00;;
4244;SDS011;2136;48.502;9.194;2023-12-22T05:01:11;4.37;;;1.40;;
4244;SDS011;2136;48.502;9.194;2023-12-22T05:03:38;1.30;;;1.00;;
4244;SDS011;2136;48.502;9.194;2023-12-22T05:06:05;3.73;;;1.30;;
4244;SDS011;2136;48.502;9.194;2023-12-22T05:08:32;4.00;;;1.20;;
4244;SDS011;2136;48.502;9.194;2023-12-22T05:10:59;1.27;;;1.07;;
4244;SDS011;2136;48.502;9.194;2023-12-22T05:13:27;2.35;;;1.10;;
4244;SDS011;2136;48.502;9.194;2023-12-22T05:15:54;4.45;;;1.67;;
4244;SDS011;2136;48.502;9.194;2023-12-22T05:18:21;1.97;;;1.00;;
4244;SDS011;2136;48.502;9.194;2023-12-22T05:20:47;4.30;;;1.33;;
4244;SDS011;2136;48.502;9.194;2023-12-22T05:23:15;5.50;;;1.33;;
4244;SDS011;2136;48.502;9.194;2023-12-22T05:25:42;7.50;;;1.57;;
4244;SDS011;2136;48.502;9.194;2023-12-22T05:28:08;5.07;;;1.60;;
4244;SDS011;2136;48.502;9.194;2023-12-22T05:30:37;5.90;;;1.63;;
4244;SDS011;2136;48.502;9.194;2023-12-22T05:33:04;8.53;;;1.87;;
4244;SDS011;2136;48.502;9.194;2023-12-22T05:35:30;9.83;;;1.67;;
4244;SDS011;2136;48.502;9.194;2023-12-22T05:37:57;5.40;;;3.10;;
4244;SDS011;2136;48.502;9.194;2023-12-22T05:40:24;10.00;;;3.03;;
4244;SDS011;2136;48.502;9.194;2023-12-22T05:42:51;9.40;;;2.23;;
4244;SDS011;2136;48.502;9.194;2023-12-22T05:45:18;7.70;;;2.20;;
4244;SDS011;2136;48.502;9.194;2023-12-22T05:47:46;6.30;;;1.80;;
4244;SDS011;2136;48.502;9.194;2023-12-22T05:50:13;6.27;;;1.67;;
4244;SDS011;2136;48.502;9.194;2023-12-22T05:52:39;6.30;;;1.43;;
4244;SDS011;2136;48.502;9.194;2023-12-22T05:55:06;7.20;;;2.13;;
4244;SDS011;2136;48.502;9.194;2023-12-22T05:57:34;6.07;;;1.80;;
4244;SDS011;2136;48.502;9.194;2023-12-22T06:00:01;8.97;;;2.77;;
4244;SDS011;2136;48.502;9.194;2023-12-22T06:02:29;4.87;;;1.50;;
4244;SDS011;2136;48.502;9.194;2023-12-22T06:04:57;7.20;;;2.37;;
4244;SDS011;2136;48.502;9.194;2023-12-22T06:07:24;12.53;;;1.80;;
4244;SDS011;2136;48.502;9.194;2023-12-22T06:09:52;6.00;;;1.97;;
4244;SDS011;2136;48.502;9.194;2023-12-22T06:12:18;3.77;;;2.10;;
4244;SDS011;2136;48.502;9.194;2023-12-22T06:14:45;5.27;;;1.70;;
4244;SDS011;2136;48.502;9.194;2023-12-22T06:17:12;8.80;;;2.00;;
4244;SDS011;2136;48.502;9.194;2023-12-22T06:19:39;4.63;;;1.40;;
4244;SDS011;2136;48.502;9.194;2023-12-22T06:22:07;5.27;;;1.80;;
4244;SDS011;2136;48.502;9.194;2023-12-22T06:24:34;4.27;;;1.77;;
4244;SDS011;2136;48.502;9.194;2023-12-22T06:27:01;5.03;;;1.27;;
4244;SDS011;2136;48.502;9.194;2023-12-22T06:29:28;2.63;;;1.40;;
4244;SDS011;2136;48.502;9.194;2023-12-22T06:31:55;5.17;;;1.90;;
4244;SDS011;2136;48.502;9.194;2023-12-22T06:34:22;4.10;;;1.40;;
4244;SDS011;2136;48.502;9.194;2023-12-22T06:36:50;3.73;;;1.60;;
4244;SDS011;2136;48.502;9.194;2023-12-22T06:39:18;4.83;;;1.60;;
4244;SDS011;2136;48.502;9.194;2023-12-22T06:41:46;5.17;;;1.50;;
4244;SDS011;2136;48.502;9.194;2023-12-22T06:44:13;7.23;;;1.73;;
4244;SDS011;2136;48.502;9.194;2023-12-22T06:46:39;7.93;;;1.53;;
4244;SDS011;2136;48.502;9.194;2023-12-22T06:49:06;10.97;;;2.30;;
4244;SDS011;2136;48.502;9.194;2023-12-22T06:51:33;7.20;;;1.83;;
4244;SDS011;2136;48.502;9.194;2023-12-22T06:54:00;4.90;;;1.23;;
4244;SDS011;2136;48.502;9.194;2023-12-22T06:56:31;5.80;;;1.70;;
4244;SDS011;2136;48.502;9.194;2023-12-22T06:58:59;4.90;;;1.40;;
4244;SDS011;2136;48.502;9.194;2023-12-22T07:01:27;4.93;;;1.67;;
4244;SDS011;2136;48.502;9.194;2023-12-22T07:03:55;3.90;;;1.50;;
4244;SDS011;2136;48.502;9.194;2023-12-22T07:06:22;6.63;;;1.60;;
4244;SDS011;2136;48.502;9.194;2023-12-22T07:11:56;7.83;;;2.20;;
4244;SDS011;2136;48.502;9.194;2023-12-22T07:14:23;11.40;;;2.27;;
4244;SDS011;2136;48.502;9.194;2023-12-22T07:16:50;11.93;;;1.80;;
4244;SDS011;2136;48.502;9.194;2023-12-22T07:19:17;4.63;;;1.77;;
4244;SDS011;2136;48.502;9.194;2023-12-22T07:21:44;6.00;;;1.90;;
4244;SDS011;2136;48.502;9.194;2023-12-22T07:24:11;5.60;;;1.80;;
4244;SDS011;2136;48.502;9.194;2023-12-22T07:26:37;7.33;;;2.17;;
4244;SDS011;2136;48.502;9.194;2023-12-22T07:29:05;5.50;;;1.97;;
4244;SDS011;2136;48.502;9.194;2023-12-22T07:31:32;7.10;;;1.73;;
4244;SDS011;2136;48.502;9.194;2023-12-22T07:33:59;8.13;;;1.63;;
4244;SDS011;2136;48.502;9.194;2023-12-22T07:36:26;3.23;;;1.97;;
4244;SDS011;2136;48.502;9.194;2023-12-22T07:38:53;9.90;;;1.87;;
4244;SDS011;2136;48.502;9.194;2023-12-22T07:41:22;1.93;;;1.53;;
4244;SDS011;2136;48.502;9.194;2023-12-22T07:43:49;5.03;;;1.53;;
4244;SDS011;2136;48.502;9.194;2023-12-22T07:46:20;8.93;;;2.30;;
4244;SDS011;2136;48.502;9.194;2023-12-22T07:48:48;3.90;;;2.00;;
4244;SDS011;2136;48.502;9.194;2023-12-22T07:51:15;6.00;;;2.13;;
4244;SDS011;2136;48.502;9.194;2023-12-22T07:53:42;6.73;;;1.67;;
4244;SDS011;2136;48.502;9.194;2023-12-22T07:56:09;11.73;;;2.27;;
4244;SDS011;2136;48.502;9.194;2023-12-22T07:58:36;6.00;;;2.43;;
4244;SDS011;2136;48.502;9.194;2023-12-22T08:01:03;6.57;;;1.90;;
4244;SDS011;2136;48.502;9.194;2023-12-22T08:03:33;9.00;;;1.97;;
4244;SDS011;2136;48.502;9.194;2023-12-22T08:06:00;11.87;;;2.47;;
4244;SDS011;2136;48.502;9.194;2023-12-22T08:08:27;4.90;;;2.07;;
4244;SDS011;2136;48.502;9.194;2023-12-22T08:10:53;6.73;;;2.23;;
4244;SDS011;2136;48.502;9.194;2023-12-22T08:13:20;4.13;;;1.70;;
4244;SDS011;2136;48.502;9.194;2023-12-22T08:15:50;4.43;;;1.43;;
4244;SDS011;2136;48.502;9.194;2023-12-22T08:18:18;6.20;;;2.17;;
4244;SDS011;2136;48.502;9.194;2023-12-22T08:20:46;4.33;;;1.57;;
4244;SDS011;2136;48.502;9.194;2023-12-22T08:23:14;3.13;;;1.60;;
4244;SDS011;2136;48.502;9.194;2023-12-22T08:25:41;5.30;;;1.80;;
4244;SDS011;2136;48.502;9.194;2023-12-22T08:28:08;4.87;;;1.73;;
4244;SDS011;2136;48.502;9.194;2023-12-22T08:30:37;3.73;;;1.63;;
4244;SDS011;2136;48.502;9.194;2023-12-22T08:33:04;3.27;;;1.70;;
4244;SDS011;2136;48.502;9.194;2023-12-22T08:35:31;7.00;;;2.07;;
4244;SDS011;2136;48.502;9.194;2023-12-22T08:37:59;6.40;;;2.20;;
4244;SDS011;2136;48.502;9.194;2023-12-22T08:40:26;5.90;;;1.57;;
4244;SDS011;2136;48.502;9.194;2023-12-22T08:42:53;7.30;;;1.73;;
4244;SDS011;2136;48.502;9.194;2023-12-22T08:45:24;5.83;;;1.67;;
4244;SDS011;2136;48.502;9.194;2023-12-22T08:47:53;6.30;;;1.85;;
4244;SDS011;2136;48.502;9.194;2023-12-22T08:50:20;6.90;;;2.40;;
4244;SDS011;2136;48.502;9.194;2023-12-22T08:52:47;5.10;;;1.70;;
4244;SDS011;2136;48.502;9.194;2023-12-22T08:55:15;8.70;;;1.90;;
4244;SDS011;2136;48.502;9.194;2023-12-22T08:57:42;5.87;;;1.70;;
4244;SDS011;2136;48.502;9.194;2023-12-22T09:00:09;8.47;;;2.27;;
4244;SDS011;2136;48.502;9.194;2023-12-22T09:02:37;7.03;;;1.63;;
4244;SDS011;2136;48.502;9.194;2023-12-22T09:05:04;6.53;;;2.30;;
4244;SDS011;2136;48.502;9.194;2023-12-22T09:07:32;5.67;;;2.60;;
4244;SDS011;2136;48.502;9.194;2023-12-22T09:09:59;7.63;;;1.83;;
4244;SDS011;2136;48.502;9.194;2023-12-22T09:12:27;7.17;;;2.57;;
4244;SDS011;2136;48.502;9.194;2023-12-22T09:14:54;6.90;;;2.17;;
4244;SDS011;2136;48.502;9.194;2023-12-22T09:17:21;5.13;;;1.30;;
4244;SDS011;2136;48.502;9.194;2023-12-22T09:19:48;8.27;;;1.43;;
4244;SDS011;2136;48.502;9.194;2023-12-22T09:22:15;8.70;;;1.70;;
4244;SDS011;2136;48.502;9.194;2023-12-22T09:24:42;2.73;;;1.40;;
4244;SDS011;2136;48.502;9.194;2023-12-22T09:27:09;7.40;;;1.97;;
4244;SDS011;2136;48.502;9.194;2023-12-22T09:29:37;5.23;;;1.80;;
4244;SDS011;2136;48.502;9.194;2023-12-22T09:32:04;6.77;;;1.33;;
4244;SDS011;2136;48.502;9.194;2023-12-22T09:34:31;3.83;;;1.50;;
4244;SDS011;2136;48.502;9.194;2023-12-22T09:36:58;11.10;;;2.70;;
4244;SDS011;2136;48.502;9.194;2023-12-22T09:39:25;8.50;;;1.70;;
4244;SDS011;2136;48.502;9.194;2023-12-22T09:41:54;5.07;;;1.83;;
4244;SDS011;2136;48.502;9.194;2023-12-22T09:44:21;9.23;;;2.70;;
4244;SDS011;2136;48.502;9.194;2023-12-22T09:46:49;7.73;;;2.23;;
4244;SDS011;2136;48.502;9.194;2023-12-22T09:49:18;9.37;;;1.77;;
4244;SDS011;2136;48.502;9.194;2023-12-22T09:51:45;9.00;;;2.37;;
4244;SDS011;2136;48.502;9.194;2023-12-22T09:54:13;7.20;;;2.03;;
4244;SDS011;2136;48.502;9.194;2023-12-22T09:56:40;3.53;;;2.67;;
4244;SDS011;2136;48.502;9.194;2023-12-22T09:59:09;6.20;;;2.10;;
4244;SDS011;2136;48.502;9.194;2023-12-22T10:01:39;9.50;;;2.30;;
4244;SDS011;2136;48.502;9.194;2023-12-22T10:04:10;3.80;;;1.90;;
4244;SDS011;2136;48.502;9.194;2023-12-22T10:06:36;12.13;;;2.87;;
4244;SDS011;2136;48.502;9.194;2023-12-22T10:09:04;6.00;;;2.13;;
4244;SDS011;2136;48.502;9.194;2023-12-22T10:11:33;8.77;;;2.40;;
4244;SDS011;2136;48.502;9.194;2023-12-22T10:14:02;4.40;;;1.87;;
4244;SDS011;2136;48.502;9.194;2023-12-22T10:16:30;7.40;;;1.90;;
4244;SDS011;2136;48.502;9.194;2023-12-22T10:18:58;12.63;;;2.57;;
4244;SDS011;2136;48.502;9.194;2023-12-22T10:21:27;2.60;;;1.97;;
4244;SDS011;2136;48.502;9.194;2023-12-22T10:23:55;8.27;;;2.03;;
4244;SDS011;2136;48.502;9.194;2023-12-22T10:26:22;12.40;;;3.00;;
4244;SDS011;2136;48.502;9.194;2023-12-22T10:28:49;10.30;;;3.47;;
4244;SDS011;2136;48.502;9.194;2023-12-22T10:31:17;13.43;;;2.60;;
4244;SDS011;2136;48.502;9.194;2023-12-22T10:33:44;5.23;;;1.90;;
4244;SDS011;2136;48.502;9.194;2023-12-22T10:36:11;7.67;;;1.97;;
4244;SDS011;2136;48.502;9.194;2023-12-22T10:38:39;10.73;;;1.90;;
4244;SDS011;2136;48.502;9.194;2023-12-22T10:41:08;5.90;;;1.80;;
4244;SDS011;2136;48.502;9.194;2023-12-22T10:43:38;5.57;;;2.27;;
4244;SDS011;2136;48.502;9.194;2023-12-22T10:46:05;4.70;;;2.60;;
4244;SDS011;2136;48.502;9.194;2023-12-22T10:48:33;7.80;;;2.20;;
4244;SDS011;2136;48.502;9.194;2023-12-22T10:51:00;4.67;;;2.50;;
4244;SDS011;2136;48.502;9.194;2023-12-22T10:53:26;4.93;;;2.00;;
4244;SDS011;2136;48.502;9.194;2023-12-22T10:55:55;6.73;;;2.20;;
4244;SDS011;2136;48.502;9.194;2023-12-22T10:58:23;9.63;;;2.07;;
4244;SDS011;2136;48.502;9.194;2023-12-22T11:00:50;9.77;;;2.00;;
4244;SDS011;2136;48.502;9.194;2023-12-22T11:03:17;6.00;;;1.98;;
4244;SDS011;2136;48.502;9.194;2023-12-22T11:05:48;6.63;;;2.30;;
4244;SDS011;2136;48.502;9.194;2023-12-22T11:08:16;4.00;;;2.30;;
4244;SDS011;2136;48.502;9.194;2023-12-22T11:10:45;8.43;;;3.20;;
4244;SDS011;2136;48.502;9.194;2023-12-22T11:13:18;3.80;;;1.70;;
4244;SDS011;2136;48.502;9.194;2023-12-22T11:15:46;4.77;;;2.00;;
4244;SDS011;2136;48.502;9.194;2023-12-22T11:18:14;11.60;;;2.10;;
4244;SDS011;2136;48.502;9.194;2023-12-22T11:20:42;5.87;;;2.67;;
4244;SDS011;2136;48.502;9.194;2023-12-22T11:23:10;6.37;;;2.10;;
4244;SDS011;2136;48.502;9.194;2023-12-22T11:25:38;7.50;;;2.40;;
4244;SDS011;2136;48.502;9.194;2023-12-22T11:28:06;5.90;;;1.90;;
4244;SDS011;2136;48.502;9.194;2023-12-22T11:30:36;5.57;;;1.87;;
4244;SDS011;2136;48.502;9.194;2023-12-22T11:33:03;4.50;;;2.00;;
4244;SDS011;2136;48.502;9.194;2023-12-22T11:35:31;8.23;;;2.57;;
4244;SDS011;2136;48.502;9.194;2023-12-22T11:37:59;6.13;;;2.27;;
4244;SDS011;2136;48.502;9.194;2023-12-22T11:40:28;5.43;;;1.83;;
4244;SDS011;2136;48.502;9.194;2023-12-22T11:42:55;3.50;;;1.87;;
4244;SDS011;2136;48.502;9.194;2023-12-22T11:45:23;2.53;;;1.83;;
4244;SDS011;2136;48.502;9.194;2023-12-22T11:47:51;6.20;;;2.40;;
4244;SDS011;2136;48.502;9.194;2023-12-22T11:50:28;8.83;;;3.10;;
4244;SDS011;2136;48.502;9.194;2023-12-22T11:52:55;9.47;;;2.57;;
4244;SDS011;2136;48.502;9.194;2023-12-22T11:58:35;5.43;;;3.10;;
4244;SDS011;2136;48.502;9.194;2023-12-22T12:01:03;6.13;;;2.00;;
4244;SDS011;2136;48.502;9.194;2023-12-22T12:03:35;3.77;;;2.33;;
4244;SDS011;2136;48.502;9.194;2023-12-22T12:06:11;2.10;;;1.27;;
4244;SDS011;2136;48.502;9.194;2023-12-22T12:08:42;6.50;;;2.40;;
4244;SDS011;2136;48.502;9.194;2023-12-22T12:11:09;4.30;;;2.13;;
4244;SDS011;2136;48.502;9.194;2023-12-22T12:13:38;10.83;;;3.60;;
4244;SDS011;2136;48.502;9.194;2023-12-22T12:16:10;6.30;;;3.07;;
4244;SDS011;2136;48.502;9.194;2023-12-22T12:18:38;4.23;;;2.60;;
4244;SDS011;2136;48.502;9.194;2023-12-22T12:21:06;2.27;;;2.07;;
4244;SDS011;2136;48.502;9.194;2023-12-22T12:23:34;3.20;;;1.70;;
4244;SDS011;2136;48.502;9.194;2023-12-22T12:26:01;2.40;;;1.80;;
4244;SDS011;2136;48.502;9.194;2023-12-22T12:28:29;3.80;;;1.67;;
4244;SDS011;2136;48.502;9.194;2023-12-22T12:30:57;1.67;;;1.57;;
4244;SDS011;2136;48.502;9.194;2023-12-22T12:33:25;6.70;;;2.30;;
4244;SDS011;2136;48.502;9.194;2023-12-22T12:35:55;2.33;;;2.00;;
4244;SDS011;2136;48.502;9.194;2023-12-22T12:38:23;3.80;;;2.33;;
4244;SDS011;2136;48.502;9.194;2023-12-22T12:41:02;2.50;;;2.07;;
4244;SDS011;2136;48.502;9.194;2023-12-22T12:43:30;1.40;;;1.30;;
4244;SDS011;2136;48.502;9.194;2023-12-22T12:46:02;2.37;;;1.30;;
4244;SDS011;2136;48.502;9.194;2023-12-22T12:48:30;2.27;;;1.17;;
4244;SDS011;2136;48.502;9.194;2023-12-22T12:51:01;1.20;;;1.10;;
4244;SDS011;2136;48.502;9.194;2023-12-22T12:53:30;1.30;;;1.03;;
4244;SDS011;2136;48.502;9.194;2023-12-22T12:55:58;2.20;;;1.20;;
4244;SDS011;2136;48.502;9.194;2023-12-22T12:58:28;2.03;;;0.77;;
4244;SDS011;2136;48.502;9.194;2023-12-22T13:01:03;1.83;;;1.73;;
4244;SDS011;2136;48.502;9.194;2023-12-22T13:03:31;0.80;;;0.80;;
4244;SDS011;2136;48.502;9.194;2023-12-22T13:06:07;1.63;;;1.10;;
4244;SDS011;2136;48.502;9.194;2023-12-22T13:08:34;1.33;;;1.20;;
4244;SDS011;2136;48.502;9.194;2023-12-22T13:11:01;0.87;;;0.87;;
4244;SDS011;2136;48.502;9.194;2023-12-22T13:13:28;0.90;;;0.90;;
4244;SDS011;2136;48.502;9.194;2023-12-22T13:15:55;2.00;;;0.90;;
4244;SDS011;2136;48.502;9.194;2023-12-22T13:18:22;0.80;;;0.80;;
4244;SDS011;2136;48.502;9.194;2023-12-22T13:20:49;0.80;;;0.80;;
4244;SDS011;2136;48.502;9.194;2023-12-22T13:23:18;0.93;;;0.90;;
4244;SDS011;2136;48.502;9.194;2023-12-22T13:25:45;1.10;;;0.90;;
4244;SDS011;2136;48.502;9.194;2023-12-22T13:28:12;0.80;;;0.80;;
4244;SDS011;2136;48.502;9.194;2023-12-22T13:30:39;1.07;;;0.97;;
4244;SDS011;2136;48.502;9.194;2023-12-22T13:33:06;2.30;;;0.90;;
4244;SDS011;2136;48.502;9.194;2023-12-22T13:35:34;3.97;;;1.23;;
4244;SDS011;2136;48.502;9.194;2023-12-22T13:38:01;0.90;;;0.83;;
4244;SDS011;2136;48.502;9.194;2023-12-22T13:40:32;1.33;;;1.00;;
4244;SDS011;2136;48.502;9.194;2023-12-22T13:43:00;0.77;;;0.77;;
4244;SDS011;2136;48.502;9.194;2023-12-22T13:45:27;1.00;;;1.00;;
4244;SDS011;2136;48.502;9.194;2023-12-22T13:47:55;0.60;;;0.60;;
4244;SDS011;2136;48.502;9.194;2023-12-22T13:50:22;0.70;;;0.70;;
4244;SDS011;2136;48.502;9.194;2023-12-22T13:52:49;0.87;;;0.87;;
4244;SDS011;2136;48.502;9.194;2023-12-22T13:55:18;0.70;;;0.70;;
4244;SDS011;2136;48.502;9.194;2023-12-22T13:57:49;1.87;;;0.73;;
4244;SDS011;2136;48.502;9.194;2023-12-22T14:00:25;0.87;;;0.87;;
4244;SDS011;2136;48.502;9.194;2023-12-22T14:02:53;1.03;;;0.60;;
4244;SDS011;2136;48.502;9.194;2023-12-22T14:05:20;0.70;;;0.70;;
4244;SDS011;2136;48.502;9.194;2023-12-22T14:07:47;0.90;;;0.90;;
4244;SDS011;2136;48.502;9.194;2023-12-22T14:10:15;1.40;;;1.00;;
4244;SDS011;2136;48.502;9.194;2023-12-22T14:12:42;0.80;;;0.80;;
4244;SDS011;2136;48.502;9.194;2023-12-22T14:15:10;0.60;;;0.60;;
4244;SDS011;2136;48.502;9.194;2023-12-22T14:17:38;0.70;;;0.70;;
4244;SDS011;2136;48.502;9.194;2023-12-22T14:20:07;0.60;;;0.60;;
4244;SDS011;2136;48.502;9.194;2023-12-22T14:22:35;1.10;;;1.10;;
4244;SDS011;2136;48.502;9.194;2023-12-22T14:25:02;1.23;;;1.13;;
4244;SDS011;2136;48.502;9.194;2023-12-22T14:27:29;1.57;;;1.27;;
4244;SDS011;2136;48.502;9.194;2023-12-22T14:29:56;1.00;;;1.00;;
4244;SDS011;2136;48.502;9.194;2023-12-22T14:32:24;1.17;;;1.17;;
4244;SDS011;2136;48.502;9.194;2023-12-22T14:34:51;1.13;;;1.13;;
4244;SDS011;2136;48.502;9.194;2023-12-22T14:37:18;1.40;;;1.30;;
4244;SDS011;2136;48.502;9.194;2023-12-22T14:39:46;0.97;;;0.97;;
4244;SDS011;2136;48.502;9.194;2023-12-22T14:42:13;2.73;;;1.40;;
4244;SDS011;2136;48.502;9.194;2023-12-22T14:44:40;1.17;;;1.10;;
4244;SDS011;2136;48.502;9.194;2023-12-22T14:47:06;0.97;;;0.93;;
4244;SDS011;2136;48.502;9.194;2023-12-22T14:49:35;1.43;;;1.07;;
4244;SDS011;2136;48.502;9.194;2023-12-22T14:52:02;1.40;;;1.30;;
4244;SDS011;2136;48.502;9.194;2023-12-22T14:54:28;1.47;;;0.70;;
4244;SDS011;2136;48.502;9.194;2023-12-22T14:56:55;0.80;;;0.80;;
4244;SDS011;2136;48.502;9.194;2023-12-22T14:59:23;1.13;;;1.10;;
4244;SDS011;2136;48.502;9.194;2023-12-22T15:01:50;0.80;;;0.80;;
4244;SDS011;2136;48.502;9.194;2023-12-22T15:04:16;1.20;;;1.10;;
4244;SDS011;2136;48.502;9.194;2023-12-22T15:06:45;1.20;;;1.10;;
4244;SDS011;2136;48.502;9.194;2023-12-22T15:09:12;1.47;;;0.70;;
4244;SDS011;2136;48.502;9.194;2023-12-22T15:11:42;1.20;;;0.93;;
4244;SDS011;2136;48.502;9.194;2023-12-22T15:14:09;1.30;;;1.20;;
4244;SDS011;2136;48.502;9.194;2023-12-22T15:16:39;0.97;;;0.97;;
4244;SDS011;2136;48.502;9.194;2023-12-22T15:19:09;2.40;;;0.97;;
4244;SDS011;2136;48.502;9.194;2023-12-22T15:21:36;0.80;;;0.80;;
4244;SDS011;2136;48.502;9.194;2023-12-22T15:24:05;0.70;;;0.70;;